Time;durP1;ratioP1;P1;durP2;ratioP2;P2;SDS_P1;SDS_P2;PMS_P1;PMS_P2;Temp;Humidity;BMP_temperature;BMP_pressure;BME280_temperature;BME280_humidity;BME280_pressure;Samples;Min_cycle;Max_cycle;Signal;HPM_P1;HPM_P2
2022/10/23 00:00:05;;;;;;;1.60;1.45;;;13.80;99.90;;;;;;6184263;23;20200;-90
2022/10/23 00:02:33;;;;;;;1.58;1.48;;;13.80;99.90;;;;;;6185073;23;20174;-90
2022/10/23 00:05:02;;;;;;;1.73;1.63;;;13.80;99.90;;;;;;6185514;23;20202;-90
2022/10/23 00:07:33;;;;;;;1.33;1.20;;;13.70;99.90;;;;;;6185002;23;20176;-90
2022/10/23 00:10:02;;;;;;;1.35;1.25;;;13.70;99.90;;;;;;6184291;23;20201;-90
2022/10/23 00:12:30;;;;;;;1.20;1.20;;;13.60;99.90;;;;;;6184895;23;20177;-90
2022/10/23 00:14:59;;;;;;;1.33;1.27;;;13.60;99.90;;;;;;6185070;23;20171;-90
2022/10/23 00:17:31;;;;;;;1.73;1.63;;;13.60;99.90;;;;;;6185181;23;20170;-91
2022/10/23 00:22:59;;;;;;;3.05;1.60;;;13.40;99.90;;;;;;6067035;23;20188;-89
2022/10/23 00:29:23;;;;;;;1.38;1.27;;;13.30;99.90;;;;;;6122819;23;20196;-89
2022/10/23 00:32:00;;;;;;;1.52;1.35;;;13.30;99.90;;;;;;6178829;23;20245;-88
2022/10/23 00:38:17;;;;;;;2.28;1.23;;;13.20;99.90;;;;;;6065079;23;20176;-90
2022/10/23 00:48:31;;;;;;;1.08;1.08;;;13.20;99.90;;;;;;6020451;23;20238;-89
2022/10/23 00:51:29;;;;;;;1.30;1.20;;;13.30;99.90;;;;;;6009525;23;20271;-89
2022/10/23 00:54:56;;;;;;;2.67;1.27;;;13.40;99.90;;;;;;6062450;23;20184;-89
2022/10/23 00:57:34;;;;;;;1.45;0.98;;;13.40;99.90;;;;;;5973886;23;20173;-89
2022/10/23 01:00:32;;;;;;;1.65;1.02;;;13.40;99.90;;;;;;5979303;24;20195;-89
2022/10/23 01:03:10;;;;;;;1.30;1.20;;;13.40;99.90;;;;;;6064643;23;20196;-90
2022/10/23 01:06:03;;;;;;;1.85;1.70;;;13.40;99.90;;;;;;6170827;23;20186;-89
2022/10/23 01:08:56;;;;;;;2.58;1.77;;;13.40;99.90;;;;;;6184304;23;20217;-89
2022/10/23 01:11:29;;;;;;;2.20;2.00;;;13.30;99.90;;;;;;6184661;23;20187;-89
2022/10/23 01:14:21;;;;;;;5.60;2.45;;;13.20;99.90;;;;;;6181294;23;20183;-89
2022/10/23 01:17:06;;;;;;;2.45;2.25;;;13.10;99.90;;;;;;6184066;23;20178;-89
2022/10/23 01:20:17;;;;;;;16.35;1.90;;;13.00;99.90;;;;;;6122385;23;20282;-88
2022/10/23 01:23:18;;;;;;;1.80;1.70;;;12.90;99.90;;;;;;6126205;23;20259;-88
2022/10/23 01:26:31;;;;;;;1.80;1.70;;;12.90;99.90;;;;;;6184973;23;20177;-89
2022/10/23 01:29:20;;;;;;;1.50;1.30;;;12.80;99.90;;;;;;6169000;23;20206;-88
2022/10/23 01:32:15;;;;;;;1.75;1.65;;;12.80;99.90;;;;;;6184605;23;20167;-88
2022/10/23 01:38:17;;;;;;;1.85;1.70;;;12.70;99.90;;;;;;6180644;23;20175;-89
2022/10/23 01:47:50;;;;;;;2.22;2.10;;;12.50;99.90;;;;;;6183484;23;20206;-89
2022/10/23 01:50:26;;;;;;;2.65;2.45;;;12.40;99.90;;;;;;6185239;23;20194;-89
2022/10/23 01:52:55;;;;;;;3.13;2.80;;;12.40;99.90;;;;;;6185619;23;20175;-89
2022/10/23 01:55:35;;;;;;;3.90;2.28;;;12.40;99.90;;;;;;6186402;23;20167;-89
2022/10/23 01:58:20;;;;;;;1.95;1.83;;;12.40;99.90;;;;;;6185814;23;20245;-89
2022/10/23 02:01:12;;;;;;;2.15;2.05;;;12.30;99.90;;;;;;6185980;23;20166;-88
2022/10/23 02:03:48;;;;;;;2.65;2.22;;;12.30;99.90;;;;;;6185783;23;20174;-88
2022/10/23 02:06:34;;;;;;;2.95;2.67;;;12.30;99.90;;;;;;6186152;23;20185;-89
2022/10/23 02:09:16;;;;;;;5.32;2.25;;;12.30;99.90;;;;;;6185069;23;20197;-89
2022/10/23 02:12:19;;;;;;;2.40;2.20;;;12.30;99.90;;;;;;6185988;23;20166;-89
2022/10/23 02:15:06;;;;;;;2.13;1.95;;;12.30;99.90;;;;;;6185713;23;20225;-88
2022/10/23 02:17:53;;;;;;;2.17;2.03;;;12.30;99.90;;;;;;6185799;23;20282;-88
2022/10/23 02:20:40;;;;;;;2.40;2.20;;;12.30;99.90;;;;;;6185504;23;20191;-89
2022/10/23 02:23:19;;;;;;;2.78;2.58;;;12.20;99.90;;;;;;6185820;23;20167;-89
2022/10/23 02:26:00;;;;;;;2.20;2.00;;;12.10;99.90;;;;;;6185781;23;20189;-89
2022/10/23 02:28:43;;;;;;;1.65;1.55;;;12.00;99.90;;;;;;6185766;23;20245;-88
2022/10/23 02:31:24;;;;;;;2.10;2.00;;;11.90;99.90;;;;;;6185538;23;20178;-88
2022/10/23 02:33:58;;;;;;;2.15;1.95;;;11.90;99.90;;;;;;6185833;23;20254;-89
2022/10/23 02:36:50;;;;;;;1.80;1.70;;;11.90;99.90;;;;;;6185666;23;20176;-88
2022/10/23 02:39:30;;;;;;;2.00;1.90;;;11.80;99.90;;;;;;6185326;23;20195;-88
2022/10/23 02:42:12;;;;;;;1.85;1.75;;;11.70;99.90;;;;;;6185046;23;20185;-90
2022/10/23 02:45:08;;;;;;;1.88;1.70;;;11.70;99.90;;;;;;6180290;23;20183;-89
2022/10/23 02:47:50;;;;;;;2.85;1.95;;;11.80;99.90;;;;;;6186083;23;20167;-89
2022/10/23 02:50:29;;;;;;;6.63;1.90;;;11.70;99.90;;;;;;6185142;23;20266;-89
2022/10/23 02:53:07;;;;;;;2.40;2.20;;;11.70;99.90;;;;;;6185642;23;20169;-89
2022/10/23 02:55:53;;;;;;;3.33;2.03;;;11.70;99.90;;;;;;6185435;23;20241;-89
2022/10/23 02:58:27;;;;;;;1.70;1.60;;;11.70;99.90;;;;;;6185209;23;20302;-89
2022/10/23 03:01:03;;;;;;;1.80;1.70;;;11.60;99.90;;;;;;6185328;23;20166;-89
2022/10/23 03:03:36;;;;;;;1.70;1.60;;;11.60;99.90;;;;;;6185808;23;20167;-88
2022/10/23 03:06:04;;;;;;;2.25;2.03;;;11.60;99.90;;;;;;6185836;23;20246;-91
2022/10/23 03:08:43;;;;;;;1.88;1.77;;;11.60;99.90;;;;;;6184890;23;20170;-88
2022/10/23 03:11:15;;;;;;;1.70;1.60;;;11.50;99.90;;;;;;6185098;23;20174;-88
2022/10/23 03:13:46;;;;;;;1.50;1.40;;;11.50;99.90;;;;;;6184805;23;20181;-89
2022/10/23 03:16:19;;;;;;;2.22;2.03;;;11.50;99.90;;;;;;6185591;23;20219;-88
2022/10/23 03:18:50;;;;;;;8.48;2.63;;;11.50;99.90;;;;;;6185166;23;20233;-89
2022/10/23 03:21:26;;;;;;;1.75;1.65;;;11.40;99.90;;;;;;6185298;23;20229;-88
2022/10/23 03:23:56;;;;;;;1.88;1.77;;;11.40;99.90;;;;;;6184650;23;20162;-88
2022/10/23 03:26:31;;;;;;;1.50;1.40;;;11.40;99.90;;;;;;6185284;23;20193;-88
2022/10/23 03:29:02;;;;;;;2.28;2.08;;;11.40;99.90;;;;;;6184208;23;20216;-88
2022/10/23 03:31:30;;;;;;;2.53;2.15;;;11.30;99.90;;;;;;6185275;23;20170;-89
2022/10/23 03:34:03;;;;;;;2.10;1.90;;;11.30;99.90;;;;;;6185274;23;20229;-89
2022/10/23 03:36:35;;;;;;;1.88;1.77;;;11.30;99.90;;;;;;6184786;23;20189;-89
2022/10/23 03:39:08;;;;;;;2.63;2.20;;;11.30;99.90;;;;;;6184836;23;20198;-89
2022/10/23 03:41:37;;;;;;;1.92;1.80;;;11.20;99.90;;;;;;6184722;23;20248;-88
2022/10/23 03:44:08;;;;;;;1.95;1.85;;;11.20;99.90;;;;;;6184663;23;20185;-89
2022/10/23 03:46:42;;;;;;;1.95;1.85;;;11.10;99.90;;;;;;6185290;23;20173;-88
2022/10/23 03:49:14;;;;;;;4.53;2.15;;;11.10;99.90;;;;;;6184249;23;20194;-88
2022/10/23 03:51:50;;;;;;;2.28;1.83;;;11.10;99.90;;;;;;6184908;23;20189;-89
2022/10/23 03:54:29;;;;;;;1.45;1.35;;;11.10;99.90;;;;;;6185178;23;20216;-88
2022/10/23 03:57:01;;;;;;;2.78;1.88;;;11.00;99.90;;;;;;6184865;23;20170;-88
2022/10/23 03:59:32;;;;;;;3.28;2.58;;;11.00;99.90;;;;;;6184475;23;20194;-88
2022/10/23 04:02:11;;;;;;;2.30;2.20;;;11.00;99.90;;;;;;6184545;23;20175;-88
2022/10/23 04:07:37;;;;;;;1.95;1.85;;;10.90;99.90;;;;;;6172754;23;20171;-89
2022/10/23 04:10:08;;;;;;;2.17;2.00;;;10.90;99.90;;;;;;6185310;23;20209;-88
2022/10/23 04:12:39;;;;;;;3.20;1.92;;;10.80;99.90;;;;;;6185100;23;20170;-88
2022/10/23 04:15:11;;;;;;;2.70;2.42;;;10.70;99.90;;;;;;6184274;23;20171;-88
2022/10/23 04:17:39;;;;;;;2.03;1.85;;;10.70;99.90;;;;;;6184249;23;20171;-88
2022/10/23 04:20:15;;;;;;;2.53;2.35;;;10.70;99.90;;;;;;6184836;23;20186;-89
2022/10/23 04:22:44;;;;;;;3.10;2.80;;;10.70;99.90;;;;;;6184620;23;20249;-88
2022/10/23 04:25:17;;;;;;;2.60;2.40;;;10.70;99.90;;;;;;6184715;23;20170;-88
2022/10/23 04:27:46;;;;;;;2.15;2.05;;;10.70;99.90;;;;;;6184203;23;20227;-88
2022/10/23 04:30:24;;;;;;;2.40;2.20;;;10.70;99.90;;;;;;6184133;23;20297;-88
2022/10/23 04:32:53;;;;;;;2.90;2.50;;;10.60;99.90;;;;;;6184263;23;20200;-88
2022/10/23 04:35:22;;;;;;;2.22;2.03;;;10.60;99.90;;;;;;6184461;23;20177;-88
2022/10/23 04:37:51;;;;;;;2.80;2.60;;;10.60;99.90;;;;;;6185009;23;20178;-89
2022/10/23 04:40:24;;;;;;;2.80;2.60;;;10.60;99.90;;;;;;6184140;23;20249;-89
2022/10/23 04:42:52;;;;;;;2.80;2.50;;;10.50;99.90;;;;;;6184531;23;20178;-88
2022/10/23 04:45:21;;;;;;;2.50;2.30;;;10.50;99.90;;;;;;6184672;23;20198;-89
2022/10/23 04:47:49;;;;;;;3.45;3.15;;;10.50;99.90;;;;;;6184524;23;20257;-89
2022/10/23 04:50:18;;;;;;;2.55;2.42;;;10.50;99.90;;;;;;6184284;23;20194;-89
2022/10/23 04:52:47;;;;;;;3.72;2.83;;;10.50;99.90;;;;;;6184607;23;20228;-89
2022/10/23 04:55:18;;;;;;;2.50;2.30;;;10.50;99.90;;;;;;6184361;23;20174;-89
2022/10/23 04:57:49;;;;;;;3.05;2.63;;;10.40;99.90;;;;;;6184176;23;20254;-88
2022/10/23 05:00:21;;;;;;;2.47;2.28;;;10.40;99.90;;;;;;6184100;23;20221;-88
2022/10/23 05:02:50;;;;;;;2.80;2.55;;;10.40;99.90;;;;;;6184989;23;20191;-89
2022/10/23 05:05:20;;;;;;;2.83;2.63;;;10.40;99.90;;;;;;6184595;23;20182;-89
2022/10/23 05:07:54;;;;;;;2.33;2.15;;;10.30;99.90;;;;;;6184288;23;20258;-88
2022/10/23 05:10:53;;;;;;;2.83;2.55;;;10.30;99.90;;;;;;6183991;23;20194;-89
2022/10/23 05:13:46;;;;;;;2.60;2.40;;;10.20;99.90;;;;;;6185901;23;20226;-89
2022/10/23 05:16:33;;;;;;;2.90;2.60;;;10.20;99.90;;;;;;6186297;23;20166;-89
2022/10/23 05:19:03;;;;;;;2.60;2.40;;;10.10;99.90;;;;;;6186328;23;20194;-89
2022/10/23 05:21:35;;;;;;;3.05;2.72;;;10.10;99.90;;;;;;6185983;23;20209;-89
2022/10/23 05:24:07;;;;;;;2.50;2.38;;;10.10;99.90;;;;;;6185619;23;20174;-89
2022/10/23 05:26:37;;;;;;;3.05;2.70;;;10.10;99.90;;;;;;6186776;23;20174;-88
2022/10/23 05:29:10;;;;;;;4.15;3.47;;;10.10;99.90;;;;;;6185550;23;20191;-89
2022/10/23 05:31:58;;;;;;;4.18;3.78;;;10.10;99.90;;;;;;6186191;23;20186;-88
2022/10/23 05:34:31;;;;;;;5.00;4.32;;;10.10;99.90;;;;;;6186086;23;20198;-89
2022/10/23 05:37:01;;;;;;;4.43;4.03;;;10.20;99.90;;;;;;6186061;23;20182;-88
2022/10/23 05:39:30;;;;;;;6.22;4.45;;;10.20;99.90;;;;;;6186037;23;20269;-88
2022/10/23 05:42:01;;;;;;;7.93;3.95;;;10.20;99.90;;;;;;6186108;23;20170;-88
2022/10/23 05:44:31;;;;;;;3.63;3.33;;;10.20;99.90;;;;;;6186130;23;20171;-89
2022/10/23 05:47:07;;;;;;;5.88;3.30;;;10.20;99.90;;;;;;6185793;23;20204;-89
2022/10/23 05:49:36;;;;;;;3.60;3.17;;;10.20;99.90;;;;;;6185519;23;20241;-89
2022/10/23 05:52:05;;;;;;;3.20;2.70;;;10.20;99.90;;;;;;6185846;23;20195;-90
2022/10/23 05:54:34;;;;;;;4.10;2.67;;;10.20;99.90;;;;;;6185824;23;20174;-89
2022/10/23 05:57:05;;;;;;;3.20;2.90;;;10.10;99.90;;;;;;6186028;23;20171;-89
2022/10/23 05:59:45;;;;;;;5.63;4.00;;;10.20;99.90;;;;;;6185192;23;20194;-89
2022/10/23 06:02:23;;;;;;;6.47;5.82;;;10.10;99.90;;;;;;6185396;23;20205;-89
2022/10/23 06:04:54;;;;;;;8.43;6.35;;;10.20;99.90;;;;;;6186165;23;20174;-89
2022/10/23 06:07:25;;;;;;;7.40;5.78;;;10.30;99.90;;;;;;6185873;23;20257;-89
2022/10/23 06:10:01;;;;;;;6.15;5.65;;;10.30;99.90;;;;;;6185622;23;20225;-89
2022/10/23 06:12:31;;;;;;;8.95;8.20;;;10.40;99.90;;;;;;6185760;23;20189;-89
2022/10/23 06:15:02;;;;;;;10.05;8.95;;;10.30;99.90;;;;;;6185436;23;20178;-89
2022/10/23 06:17:31;;;;;;;12.63;9.10;;;10.40;99.90;;;;;;6185752;23;20257;-90
2022/10/23 06:20:01;;;;;;;12.07;10.85;;;10.40;99.90;;;;;;6185514;23;20198;-89
2022/10/23 06:22:35;;;;;;;9.68;8.63;;;10.30;99.90;;;;;;6185132;23;20166;-89
2022/10/23 06:25:08;;;;;;;11.43;10.05;;;10.40;99.90;;;;;;6185223;23;20245;-90
2022/10/23 06:27:37;;;;;;;11.63;10.55;;;10.40;99.90;;;;;;6185452;23;20237;-89
2022/10/23 06:30:12;;;;;;;13.70;11.57;;;10.40;99.90;;;;;;6185387;23;20194;-89
2022/10/23 06:32:50;;;;;;;10.75;9.60;;;10.40;99.90;;;;;;6185690;23;20244;-89
2022/10/23 06:35:22;;;;;;;12.60;11.45;;;10.40;99.90;;;;;;6185518;23;20197;-89
2022/10/23 06:37:50;;;;;;;12.27;11.13;;;10.40;99.90;;;;;;6185226;23;20245;-90
2022/10/23 06:40:22;;;;;;;12.02;10.80;;;10.50;99.90;;;;;;6184864;23;20210;-89
2022/10/23 06:42:50;;;;;;;12.18;11.02;;;10.50;99.90;;;;;;6185589;23;20162;-89
2022/10/23 06:45:24;;;;;;;13.30;11.95;;;10.50;99.90;;;;;;6185506;23;20182;-89
2022/10/23 06:47:53;;;;;;;11.98;10.85;;;10.50;99.90;;;;;;6185578;23;20167;-89
2022/10/23 06:50:24;;;;;;;11.20;10.23;;;10.50;99.90;;;;;;6184850;23;20300;-89
2022/10/23 06:53:01;;;;;;;13.18;11.85;;;10.50;99.90;;;;;;6185344;23;20193;-89
2022/10/23 06:55:30;;;;;;;11.45;10.45;;;10.60;99.90;;;;;;6185273;23;20210;-89
2022/10/23 06:57:59;;;;;;;10.38;9.48;;;10.60;99.90;;;;;;6184903;23;20197;-89
2022/10/23 07:00:29;;;;;;;8.63;7.88;;;10.60;99.90;;;;;;6185582;23;20201;-89
2022/10/23 07:02:58;;;;;;;8.30;7.50;;;10.60;99.90;;;;;;6185517;23;20170;-88
2022/10/23 07:05:27;;;;;;;6.25;5.65;;;10.60;99.90;;;;;;6184968;23;20174;-90
2022/10/23 07:07:56;;;;;;;8.10;6.35;;;10.70;99.90;;;;;;6185601;23;20174;-91
2022/10/23 07:10:27;;;;;;;7.97;7.20;;;10.70;99.90;;;;;;6185275;23;20201;-88
2022/10/23 07:12:59;;;;;;;7.30;6.60;;;10.80;99.90;;;;;;6185280;23;20218;-88
2022/10/23 07:15:30;;;;;;;6.75;6.25;;;10.80;99.90;;;;;;6187150;23;20233;-88
2022/10/23 07:18:04;;;;;;;7.13;6.45;;;10.90;99.90;;;;;;6192449;23;20177;-88
2022/10/23 07:20:50;;;;;;;7.95;7.25;;;10.90;99.90;;;;;;6186368;23;20202;-89
2022/10/23 07:23:26;;;;;;;8.57;7.13;;;11.00;99.90;;;;;;6184325;23;20226;-89
2022/10/23 07:26:07;;;;;;;7.32;6.63;;;11.00;99.90;;;;;;6184799;23;20174;-88
2022/10/23 07:28:49;;;;;;;6.35;5.75;;;11.10;99.90;;;;;;6184448;23;20181;-89
2022/10/23 07:31:19;;;;;;;7.78;6.97;;;11.20;99.90;;;;;;6184830;23;20177;-88
2022/10/23 07:33:54;;;;;;;7.65;6.95;;;11.20;99.90;;;;;;6185153;23;20182;-88
2022/10/23 07:36:23;;;;;;;7.22;6.57;;;11.20;99.90;;;;;;6185130;23;20170;-88
2022/10/23 07:38:51;;;;;;;6.88;6.28;;;11.30;99.90;;;;;;6184733;23;20195;-90
2022/10/23 07:41:21;;;;;;;6.05;5.55;;;11.30;99.90;;;;;;6184787;23;20182;-87
2022/10/23 07:43:53;;;;;;;25.98;6.68;;;11.40;99.90;;;;;;6184777;23;20170;-88
2022/10/23 07:46:24;;;;;;;5.53;5.13;;;11.40;99.90;;;;;;6185108;23;20182;-89
2022/10/23 07:48:52;;;;;;;6.05;5.55;;;11.40;99.90;;;;;;6184739;23;20195;-89
2022/10/23 07:51:23;;;;;;;5.28;4.82;;;11.50;99.90;;;;;;6184938;23;20209;-88
2022/10/23 07:53:52;;;;;;;5.60;5.07;;;11.50;99.90;;;;;;6184823;23;20172;-88
2022/10/23 07:56:25;;;;;;;5.70;5.18;;;11.50;99.90;;;;;;6184838;23;20222;-88
2022/10/23 07:58:53;;;;;;;5.05;4.65;;;11.70;99.90;;;;;;6184438;23;20190;-88
2022/10/23 08:01:28;;;;;;;4.90;4.50;;;11.70;99.90;;;;;;6184890;23;20201;-89
2022/10/23 08:04:10;;;;;;;4.75;4.15;;;11.80;99.90;;;;;;6184955;23;20174;-88
2022/10/23 08:06:39;;;;;;;4.47;4.10;;;11.90;99.90;;;;;;6185083;23;20178;-89
2022/10/23 08:09:08;;;;;;;4.07;3.78;;;12.00;99.90;;;;;;6184391;23;20195;-88
2022/10/23 08:11:45;;;;;;;4.55;3.78;;;12.20;99.90;;;;;;6184410;23;20179;-88
2022/10/23 08:14:14;;;;;;;5.45;3.95;;;12.20;99.90;;;;;;6184583;23;20174;-91
2022/10/23 08:16:44;;;;;;;3.80;3.50;;;12.30;99.90;;;;;;6185055;23;20177;-88
2022/10/23 08:19:12;;;;;;;3.85;3.45;;;12.40;99.90;;;;;;6184279;23;20200;-88
2022/10/23 08:21:41;;;;;;;3.53;3.22;;;12.50;99.90;;;;;;6184692;23;20182;-88
2022/10/23 08:24:13;;;;;;;4.57;4.03;;;12.60;99.90;;;;;;6184520;23;20167;-88
2022/10/23 08:26:41;;;;;;;4.13;3.72;;;12.70;99.90;;;;;;6184339;23;20170;-88
2022/10/23 08:29:10;;;;;;;3.65;3.35;;;12.80;99.90;;;;;;6184530;23;20198;-89
2022/10/23 08:31:39;;;;;;;6.85;3.55;;;12.90;99.90;;;;;;6184978;23;20193;-88
2022/10/23 08:34:09;;;;;;;4.57;3.70;;;13.00;99.90;;;;;;6184769;23;20174;-88
2022/10/23 08:36:39;;;;;;;5.13;3.60;;;13.10;99.90;;;;;;6184729;23;20192;-88
2022/10/23 08:39:13;;;;;;;3.92;3.63;;;13.20;99.90;;;;;;6184489;23;20257;-89
2022/10/23 08:41:47;;;;;;;3.75;3.45;;;13.40;99.90;;;;;;6155508;23;20227;-91
2022/10/23 08:44:22;;;;;;;4.22;3.83;;;13.50;99.90;;;;;;6185113;23;20162;-89
2022/10/23 08:47:05;;;;;;;5.05;3.65;;;13.60;99.90;;;;;;6184587;23;20220;-91
2022/10/23 08:49:45;;;;;;;4.00;3.67;;;13.80;99.90;;;;;;6186307;23;20197;-91
2022/10/23 08:52:19;;;;;;;3.95;3.60;;;14.00;99.90;;;;;;6186352;23;20194;-91
2022/10/23 08:55:04;;;;;;;3.63;3.33;;;14.20;99.90;;;;;;6186580;23;20181;-88
2022/10/23 08:57:37;;;;;;;3.72;3.30;;;14.40;99.90;;;;;;6186709;23;20190;-91
2022/10/23 09:00:14;;;;;;;4.60;3.75;;;14.50;99.90;;;;;;6186387;23;20204;-88
2022/10/23 09:02:45;;;;;;;4.30;3.90;;;14.60;99.90;;;;;;6186619;23;20159;-89
2022/10/23 09:05:19;;;;;;;3.83;3.53;;;14.80;99.90;;;;;;6186662;23;20245;-89
2022/10/23 09:08:07;;;;;;;4.82;4.43;;;15.00;99.90;;;;;;6186356;23;20502;-90
2022/10/23 09:11:02;;;;;;;6.35;5.03;;;15.20;99.90;;;;;;6186277;23;20197;-90
2022/10/23 09:14:20;;;;;;;4.63;4.25;;;15.20;99.90;;;;;;6186564;23;20305;-90
2022/10/23 09:17:00;;;;;;;4.95;4.53;;;15.40;99.90;;;;;;6136793;23;20171;-90
2022/10/23 09:19:30;;;;;;;4.85;4.45;;;15.60;99.90;;;;;;6186242;23;20194;-90
2022/10/23 09:22:01;;;;;;;4.85;4.45;;;15.90;99.90;;;;;;6186786;23;20167;-90
2022/10/23 09:24:30;;;;;;;7.53;5.53;;;16.00;99.90;;;;;;6186439;23;20225;-90
2022/10/23 09:26:59;;;;;;;5.38;4.97;;;16.10;99.90;;;;;;6186592;23;20181;-89
2022/10/23 09:29:30;;;;;;;5.20;4.70;;;16.30;99.90;;;;;;6185916;23;20209;-89
2022/10/23 09:32:00;;;;;;;8.25;5.82;;;16.20;99.90;;;;;;6186030;23;20190;-89
2022/10/23 09:34:30;;;;;;;8.50;5.93;;;16.10;99.90;;;;;;6186292;23;20190;-90
2022/10/23 09:37:02;;;;;;;6.60;5.95;;;16.10;99.90;;;;;;6186346;23;20186;-89
2022/10/23 09:39:33;;;;;;;7.28;6.43;;;16.10;99.90;;;;;;6185672;23;20198;-89
2022/10/23 09:42:20;;;;;;;11.60;8.10;;;16.10;99.90;;;;;;6186330;23;20185;-90
2022/10/23 09:44:50;;;;;;;8.82;8.02;;;16.00;99.90;;;;;;6186349;23;20173;-90
2022/10/23 09:47:21;;;;;;;10.25;9.35;;;16.10;99.90;;;;;;6186274;23;20171;-89
2022/10/23 09:49:51;;;;;;;12.10;9.70;;;16.10;99.90;;;;;;6185509;23;20194;-89
2022/10/23 09:52:29;;;;;;;11.95;10.57;;;16.10;99.90;;;;;;6186139;23;20190;-89
2022/10/23 09:55:00;;;;;;;12.38;10.38;;;16.10;99.90;;;;;;6185973;23;20170;-89
2022/10/23 09:57:31;;;;;;;13.10;11.00;;;16.10;99.90;;;;;;6185716;23;20193;-90
2022/10/23 10:00:02;;;;;;;11.45;10.35;;;16.20;99.90;;;;;;6185311;23;20249;-90
2022/10/23 10:02:33;;;;;;;11.73;10.57;;;16.40;99.90;;;;;;6186446;23;20197;-89
2022/10/23 10:05:23;;;;;;;12.52;11.32;;;16.50;99.90;;;;;;6186007;23;20242;-90
2022/10/23 10:08:02;;;;;;;12.05;10.77;;;16.60;99.90;;;;;;6186046;23;20174;-89
2022/10/23 10:10:36;;;;;;;13.07;11.70;;;16.80;99.90;;;;;;6185751;23;20194;-89
2022/10/23 10:13:18;;;;;;;11.35;10.40;;;17.00;99.90;;;;;;6186324;23;20197;-90
2022/10/23 10:15:51;;;;;;;13.88;11.32;;;17.30;99.90;;;;;;6186292;23;20162;-89
2022/10/23 10:18:28;;;;;;;12.02;10.93;;;17.50;99.90;;;;;;6185863;23;20174;-89
2022/10/23 10:21:06;;;;;;;10.52;9.43;;;17.70;99.90;;;;;;6185977;23;20179;-90
2022/10/23 10:23:45;;;;;;;12.32;11.07;;;18.10;99.90;;;;;;6185538;23;20180;-90
2022/10/23 10:26:24;;;;;;;11.88;10.60;;;18.70;99.90;;;;;;6185524;23;20186;-89
2022/10/23 10:29:05;;;;;;;11.75;10.50;;;18.80;99.90;;;;;;6191988;23;20198;-88
2022/10/23 10:31:44;;;;;;;11.73;10.63;;;18.90;99.90;;;;;;6194324;23;20163;-88
2022/10/23 10:34:25;;;;;;;11.52;10.38;;;18.90;99.90;;;;;;6187493;23;20190;-88
2022/10/23 10:36:56;;;;;;;16.27;10.93;;;18.90;99.90;;;;;;6186159;23;20181;-89
2022/10/23 10:39:36;;;;;;;11.52;10.38;;;18.90;99.90;;;;;;6185607;23;20205;-89
2022/10/23 10:42:27;;;;;;;15.30;11.15;;;18.90;99.90;;;;;;6185936;23;20176;-89
2022/10/23 10:45:08;;;;;;;12.65;11.23;;;19.10;99.90;;;;;;6185918;23;20175;-88
2022/10/23 10:47:49;;;;;;;11.23;10.13;;;19.30;99.90;;;;;;6186111;23;20174;-89
2022/10/23 10:50:22;;;;;;;11.70;10.57;;;19.50;99.90;;;;;;6185085;23;20204;-88
2022/10/23 10:53:00;;;;;;;11.93;10.75;;;19.60;99.90;;;;;;6185734;23;20182;-88
2022/10/23 10:55:35;;;;;;;9.85;8.85;;;19.90;99.90;;;;;;6185812;23;20246;-89
2022/10/23 10:58:12;;;;;;;9.45;8.38;;;20.00;99.90;;;;;;6185548;23;20253;-88
2022/10/23 11:00:41;;;;;;;9.70;8.70;;;20.10;99.90;;;;;;6185382;23;20214;-88
2022/10/23 11:03:22;;;;;;;9.32;8.43;;;20.10;99.90;;;;;;6185114;23;20174;-89
2022/10/23 11:05:53;;;;;;;8.25;7.55;;;20.10;99.90;;;;;;6185232;23;20186;-89
2022/10/23 11:08:30;;;;;;;8.07;5.50;;;20.10;99.90;;;;;;6185148;23;20166;-90
2022/10/23 11:11:24;;;;;;;3.97;3.58;;;20.00;99.90;;;;;;6185005;23;20181;-89
2022/10/23 11:13:53;;;;;;;3.47;3.20;;;20.10;99.90;;;;;;6185241;23;20179;-89
2022/10/23 11:16:28;;;;;;;3.45;3.15;;;20.20;99.90;;;;;;6185102;23;20174;-89
2022/10/23 11:19:04;;;;;;;2.95;2.75;;;20.60;99.90;;;;;;6185243;23;20190;-89
2022/10/23 11:21:44;;;;;;;3.70;3.40;;;20.80;99.90;;;;;;6185575;23;20186;-88
2022/10/23 11:24:48;;;;;;;3.17;2.88;;;20.90;99.90;;;;;;6185322;23;20174;-89
2022/10/23 11:27:31;;;;;;;3.13;2.80;;;21.20;99.90;;;;;;6184849;23;20229;-89
2022/10/23 11:30:30;;;;;;;3.45;3.15;;;21.30;99.90;;;;;;6184478;23;20191;-89
2022/10/23 11:33:38;;;;;;;2.90;2.70;;;21.30;99.90;;;;;;6120054;23;20178;-88
2022/10/23 11:36:16;;;;;;;4.60;3.45;;;21.10;99.90;;;;;;6185768;23;20197;-89
2022/10/23 11:38:50;;;;;;;2.85;2.50;;;20.90;99.90;;;;;;6185194;23;20200;-88
2022/10/23 11:41:24;;;;;;;2.90;2.70;;;20.70;99.90;;;;;;6185526;23;20249;-89
2022/10/23 11:44:00;;;;;;;2.70;2.50;;;20.60;99.90;;;;;;6184980;23;20174;-88
2022/10/23 11:46:34;;;;;;;4.35;2.58;;;20.90;99.90;;;;;;6184973;23;20189;-89
2022/10/23 11:49:04;;;;;;;3.05;2.78;;;21.00;99.90;;;;;;6184870;23;20194;-88
2022/10/23 11:51:35;;;;;;;3.80;3.40;;;20.80;99.90;;;;;;6184959;23;20201;-89
2022/10/23 11:54:26;;;;;;;2.70;2.50;;;21.00;99.90;;;;;;6184676;23;20194;-89
2022/10/23 11:57:11;;;;;;;3.67;3.38;;;21.20;99.90;;;;;;6185227;23;20257;-88
2022/10/23 11:59:55;;;;;;;2.45;2.30;;;21.10;99.90;;;;;;6184480;23;20273;-89
2022/10/23 12:02:30;;;;;;;3.03;2.83;;;21.20;99.90;;;;;;6185230;23;20173;-89
2022/10/23 12:05:04;;;;;;;3.13;2.83;;;21.10;99.90;;;;;;6184935;23;20177;-88
2022/10/23 12:07:35;;;;;;;3.65;3.33;;;21.00;99.90;;;;;;6185062;23;20170;-89
2022/10/23 12:10:07;;;;;;;3.00;2.80;;;21.00;99.90;;;;;;6184394;23;20269;-89
2022/10/23 12:12:39;;;;;;;2.90;2.70;;;21.00;99.90;;;;;;6184827;23;20171;-89
2022/10/23 12:15:20;;;;;;;3.30;3.03;;;21.00;99.90;;;;;;6185212;23;20190;-89
2022/10/23 12:17:50;;;;;;;3.05;2.85;;;20.90;99.90;;;;;;6184897;23;20175;-88
2022/10/23 12:20:38;;;;;;;3.83;3.22;;;20.90;99.90;;;;;;6184359;23;20218;-88
2022/10/23 12:23:24;;;;;;;3.65;3.20;;;20.80;99.90;;;;;;6183903;23;20209;-88
2022/10/23 12:26:11;;;;;;;4.15;3.15;;;21.00;99.90;;;;;;6184821;23;20170;-89
2022/10/23 12:28:47;;;;;;;2.95;2.78;;;20.90;99.90;;;;;;6184290;23;20226;-89
2022/10/23 12:31:30;;;;;;;2.83;2.63;;;21.00;99.90;;;;;;6184792;23;20166;-89
2022/10/23 12:34:10;;;;;;;3.05;2.85;;;20.80;99.90;;;;;;6185082;23;20201;-89
2022/10/23 12:36:47;;;;;;;3.45;3.25;;;20.60;99.90;;;;;;6184615;23;20201;-88
2022/10/23 12:39:32;;;;;;;3.40;3.10;;;20.20;99.90;;;;;;6184169;23;20277;-88
2022/10/23 12:42:01;;;;;;;4.43;3.95;;;19.90;99.90;;;;;;6185054;23;20173;-89
2022/10/23 12:44:32;;;;;;;3.60;3.40;;;19.50;99.90;;;;;;6184525;23;20273;-88
2022/10/23 12:47:04;;;;;;;4.25;3.95;;;19.00;99.90;;;;;;6184218;23;20174;-89
2022/10/23 12:49:34;;;;;;;3.63;3.42;;;18.70;99.90;;;;;;6183987;23;20289;-89
2022/10/23 12:52:05;;;;;;;3.83;3.53;;;18.50;99.90;;;;;;6184605;23;20189;-89
2022/10/23 12:54:43;;;;;;;3.85;3.55;;;18.40;99.90;;;;;;6184405;23;20166;-88
2022/10/23 12:57:24;;;;;;;5.68;5.18;;;18.30;99.90;;;;;;6184711;23;20167;-89
2022/10/23 13:00:01;;;;;;;8.20;5.35;;;18.10;99.90;;;;;;6183615;23;20277;-89
2022/10/23 13:02:34;;;;;;;5.45;4.95;;;17.90;99.90;;;;;;6184404;23;20170;-88
2022/10/23 13:05:06;;;;;;;4.95;4.60;;;17.70;99.90;;;;;;6184542;23;20197;-90
2022/10/23 13:07:37;;;;;;;5.00;4.65;;;17.50;99.90;;;;;;6184838;23;20201;-90
2022/10/23 13:13:26;;;;;;;5.40;5.00;;;17.40;99.90;;;;;;6185076;23;20162;-88
2022/10/23 13:15:55;;;;;;;6.43;5.90;;;17.20;99.90;;;;;;6184548;23;20206;-89
2022/10/23 13:18:39;;;;;;;5.43;5.03;;;17.10;99.90;;;;;;6183798;23;20175;-88
2022/10/23 13:21:16;;;;;;;5.25;4.78;;;17.10;99.90;;;;;;6184704;23;20249;-88
2022/10/23 13:23:53;;;;;;;8.05;4.78;;;17.10;99.90;;;;;;6184430;23;20174;-88
2022/10/23 13:27:22;;;;;;;5.53;5.03;;;17.10;99.90;;;;;;6181083;23;20178;-88
2022/10/23 13:30:40;;;;;;;5.40;4.93;;;17.00;99.90;;;;;;6151794;23;20206;-88
2022/10/23 13:33:25;;;;;;;5.82;5.35;;;17.00;99.90;;;;;;6183950;23;20199;-88
2022/10/23 13:36:01;;;;;;;5.60;5.13;;;17.10;99.90;;;;;;6186412;23;20175;-89
2022/10/23 13:38:40;;;;;;;5.78;5.28;;;17.30;99.90;;;;;;6191460;23;20162;-88
2022/10/23 13:41:14;;;;;;;6.15;5.55;;;17.50;99.90;;;;;;6197347;23;20177;-89
2022/10/23 13:43:44;;;;;;;5.53;5.00;;;17.90;99.90;;;;;;6186109;23;20281;-89
2022/10/23 13:46:15;;;;;;;5.47;4.97;;;18.20;99.90;;;;;;6185859;23;20202;-89
2022/10/23 13:48:44;;;;;;;4.22;3.92;;;18.30;99.90;;;;;;6185616;23;20214;-88
2022/10/23 13:51:22;;;;;;;4.40;4.10;;;18.50;99.90;;;;;;6186339;23;20209;-89
2022/10/23 13:53:53;;;;;;;4.32;4.03;;;18.40;99.90;;;;;;6185515;23;20206;-89
2022/10/23 13:56:35;;;;;;;5.57;5.07;;;18.50;99.90;;;;;;6186275;23;20182;-89
2022/10/23 13:59:13;;;;;;;4.80;4.32;;;18.40;99.90;;;;;;6185520;23;20257;-89
2022/10/23 14:01:49;;;;;;;5.55;4.75;;;18.20;99.90;;;;;;6186089;23;20249;-88
2022/10/23 14:04:22;;;;;;;5.45;4.40;;;18.20;99.90;;;;;;6186028;23;20167;-88